createdAt,value
2023-02-15T00:01:20.579Z,99.90
2023-02-15T00:04:07.344Z,99.90
2023-02-15T00:06:53.004Z,99.90
2023-02-15T00:09:38.482Z,99.90
2023-02-15T00:12:23.910Z,99.90
2023-02-15T00:15:09.777Z,99.90
2023-02-15T00:17:55.506Z,99.90
2023-02-15T00:20:41.043Z,99.90
2023-02-15T00:23:27.841Z,99.90
2023-02-15T00:26:13.373Z,99.90
2023-02-15T00:29:02.499Z,99.90
2023-02-15T00:31:49.284Z,99.90
2023-02-15T00:34:35.422Z,99.90
2023-02-15T00:37:20.803Z,99.90
2023-02-15T00:40:07.668Z,99.90
2023-02-15T00:42:53.332Z,99.90
2023-02-15T00:45:38.756Z,99.90
2023-02-15T00:48:24.713Z,99.90
2023-02-15T00:51:09.913Z,99.90
2023-02-15T00:53:55.669Z,99.90
2023-02-15T00:56:41.424Z,99.90
2023-02-15T00:59:27.359Z,99.90
2023-02-15T01:02:14.023Z,99.90
2023-02-15T01:04:59.768Z,99.90
2023-02-15T01:07:45.349Z,99.90
2023-02-15T01:10:30.966Z,99.90
2023-02-15T01:13:17.180Z,99.90
2023-02-15T01:16:04.523Z,99.90
2023-02-15T01:18:51.012Z,99.90
2023-02-15T01:21:36.800Z,99.90
2023-02-15T01:24:22.397Z,99.90
2023-02-15T01:27:07.757Z,99.90
2023-02-15T01:29:53.500Z,99.90
2023-02-15T01:32:41.808Z,99.90
2023-02-15T01:35:27.031Z,99.90
2023-02-15T01:38:14.896Z,99.90
2023-02-15T01:41:18.896Z,99.90
2023-02-15T01:44:04.891Z,99.90
2023-02-15T01:46:54.044Z,99.90
2023-02-15T01:49:42.312Z,99.90
2023-02-15T01:52:28.277Z,99.90
2023-02-15T01:55:15.507Z,99.90
2023-02-15T01:58:02.069Z,99.90
2023-02-15T02:00:48.739Z,99.90
2023-02-15T02:03:55.416Z,99.90
2023-02-15T02:06:42.090Z,99.90
2023-02-15T02:09:27.904Z,99.90
2023-02-15T02:12:14.168Z,99.90
2023-02-15T02:15:00.399Z,99.90
2023-02-15T02:17:55.007Z,99.90
2023-02-15T02:20:55.951Z,99.90
2023-02-15T02:24:03.118Z,99.90
2023-02-15T02:27:10.012Z,99.90
2023-02-15T02:30:27.009Z,99.90
2023-02-15T02:33:37.396Z,99.90
2023-02-15T02:36:29.512Z,99.90
2023-02-15T02:39:26.864Z,99.90
2023-02-15T02:42:19.309Z,99.90
2023-02-15T02:45:15.205Z,99.90
2023-02-15T02:48:07.357Z,99.90
2023-02-15T02:50:53.134Z,99.90
2023-02-15T02:53:38.938Z,99.90
2023-02-15T02:56:42.360Z,99.90
2023-02-15T02:59:33.373Z,99.90
2023-02-15T03:02:25.204Z,99.90
2023-02-15T03:05:17.328Z,99.90
2023-02-15T03:08:07.008Z,99.90
2023-02-15T03:10:54.113Z,99.90
2023-02-15T03:13:40.607Z,99.90
2023-02-15T03:16:27.853Z,99.90
2023-02-15T03:19:26.066Z,99.90
2023-02-15T03:22:24.869Z,99.90
2023-02-15T03:25:18.241Z,99.90
2023-02-15T03:28:08.815Z,99.90
2023-02-15T03:30:59.112Z,99.90
2023-02-15T03:34:02.329Z,99.90
2023-02-15T03:37:08.224Z,99.90
2023-02-15T03:40:30.846Z,99.90
2023-02-15T03:43:20.310Z,99.90
2023-02-15T03:46:32.976Z,99.90
2023-02-15T03:49:42.862Z,99.90
2023-02-15T03:52:30.928Z,99.90
2023-02-15T03:55:16.229Z,99.90
2023-02-15T03:58:20.310Z,99.90
2023-02-15T04:01:33.153Z,99.90
2023-02-15T04:04:22.285Z,99.90
2023-02-15T04:07:09.296Z,99.90
2023-02-15T04:10:13.154Z,99.90
2023-02-15T04:12:58.577Z,99.90
2023-02-15T04:16:03.288Z,99.90
2023-02-15T04:19:07.837Z,99.90
2023-02-15T04:22:11.986Z,99.90
2023-02-15T04:25:12.800Z,99.90
2023-02-15T04:27:58.469Z,99.90
2023-02-15T04:30:44.043Z,99.90
2023-02-15T04:33:29.481Z,99.90
2023-02-15T04:36:15.053Z,99.90
2023-02-15T04:39:00.591Z,99.90
2023-02-15T04:41:46.987Z,99.90
2023-02-15T04:44:32.758Z,99.90
2023-02-15T04:47:18.549Z,99.90
2023-02-15T04:50:04.800Z,99.90
2023-02-15T04:52:50.344Z,99.90
2023-02-15T04:55:36.015Z,99.90
2023-02-15T04:58:21.536Z,99.90
2023-02-15T05:01:07.107Z,99.90
2023-02-15T05:03:52.701Z,99.90
2023-02-15T05:06:38.103Z,99.90
2023-02-15T05:09:23.678Z,99.90
2023-02-15T05:12:09.254Z,99.90
2023-02-15T05:14:54.580Z,99.90
2023-02-15T05:17:40.668Z,99.90
2023-02-15T05:20:26.208Z,99.90
2023-02-15T05:23:12.062Z,99.90
2023-02-15T05:26:16.095Z,99.90
2023-02-15T05:29:01.584Z,99.90
2023-02-15T05:31:48.411Z,99.90
2023-02-15T05:34:34.384Z,99.90
2023-02-15T05:37:19.748Z,99.90
2023-02-15T05:40:05.835Z,99.90
2023-02-15T05:42:51.285Z,99.90
2023-02-15T05:45:36.753Z,99.90
2023-02-15T05:48:24.185Z,99.90
2023-02-15T05:51:14.200Z,99.90
2023-02-15T05:53:59.903Z,99.90
2023-02-15T05:56:45.610Z,99.90
2023-02-15T05:59:31.201Z,99.90
2023-02-15T06:02:16.826Z,99.90
2023-02-15T06:05:02.452Z,99.90
2023-02-15T06:07:47.961Z,99.90
2023-02-15T06:10:33.489Z,99.90
2023-02-15T06:13:19.266Z,99.90
2023-02-15T06:16:05.844Z,99.90
2023-02-15T06:18:53.703Z,99.90
2023-02-15T06:21:39.315Z,99.90
2023-02-15T06:24:24.859Z,99.90
2023-02-15T06:27:11.108Z,99.90
2023-02-15T06:29:56.582Z,99.90
2023-02-15T06:32:42.210Z,99.90
2023-02-15T06:35:28.460Z,99.90
2023-02-15T06:38:14.300Z,99.90
2023-02-15T06:41:00.216Z,99.90
2023-02-15T06:43:45.744Z,99.90
2023-02-15T06:46:31.290Z,99.90
2023-02-15T06:49:16.783Z,99.90
2023-02-15T06:52:02.368Z,99.90
2023-02-15T06:55:01.250Z,99.90
2023-02-15T06:57:46.701Z,99.90
2023-02-15T07:00:32.322Z,99.90
2023-02-15T07:03:17.794Z,99.90
2023-02-15T07:06:07.036Z,99.90
2023-02-15T07:08:53.037Z,99.90
2023-02-15T07:11:57.017Z,99.90
2023-02-15T07:14:42.318Z,99.90
2023-02-15T07:17:36.130Z,99.90
2023-02-15T07:20:24.028Z,99.90
2023-02-15T07:23:10.110Z,99.90
2023-02-15T07:26:00.502Z,99.90
2023-02-15T07:28:46.258Z,99.90
2023-02-15T07:31:32.109Z,99.90
2023-02-15T07:34:18.028Z,99.90
2023-02-15T07:37:03.904Z,99.90
2023-02-15T07:39:49.909Z,99.90
2023-02-15T07:42:35.331Z,99.90
2023-02-15T07:45:21.119Z,99.90
2023-02-15T07:48:07.425Z,99.90
2023-02-15T07:50:52.652Z,99.90
2023-02-15T07:53:39.480Z,99.90
2023-02-15T07:56:25.078Z,99.90
2023-02-15T07:59:10.423Z,99.90
2023-02-15T08:01:57.359Z,99.90
2023-02-15T08:04:43.291Z,99.90
2023-02-15T08:07:28.772Z,99.90
2023-02-15T08:10:34.237Z,99.90
2023-02-15T08:13:19.716Z,99.90
2023-02-15T08:16:05.826Z,99.90
2023-02-15T08:18:52.991Z,99.90
2023-02-15T08:21:41.371Z,99.90
2023-02-15T08:24:29.325Z,99.90
2023-02-15T08:27:15.060Z,99.90
2023-02-15T08:30:00.546Z,99.90
2023-02-15T08:32:46.030Z,99.90
2023-02-15T08:35:31.555Z,99.90
2023-02-15T08:38:16.791Z,99.90
2023-02-15T08:41:23.662Z,99.90
2023-02-15T08:44:10.476Z,99.90
2023-02-15T08:46:55.798Z,99.90
2023-02-15T08:49:41.597Z,99.90
2023-02-15T08:52:27.176Z,99.90
2023-02-15T08:55:12.646Z,99.90
2023-02-15T08:57:58.776Z,99.90
2023-02-15T09:00:46.553Z,99.90
2023-02-15T09:03:33.122Z,99.90
2023-02-15T09:06:19.103Z,99.90
2023-02-15T09:09:04.911Z,99.90
2023-02-15T09:11:56.815Z,99.90
2023-02-15T09:14:43.057Z,99.90
2023-02-15T09:17:28.742Z,99.90
2023-02-15T09:20:14.054Z,99.90
2023-02-15T09:23:00.029Z,99.90
2023-02-15T09:25:45.666Z,99.90
2023-02-15T09:28:33.344Z,99.90
2023-02-15T09:31:21.582Z,99.90
2023-02-15T09:34:07.273Z,99.90
2023-02-15T09:36:52.851Z,99.90
2023-02-15T09:39:42.199Z,99.90
2023-02-15T09:43:05.804Z,99.90
2023-02-15T09:46:21.080Z,99.90
2023-02-15T09:49:28.135Z,99.90
2023-02-15T09:52:25.473Z,99.90
2023-02-15T09:55:17.717Z,99.90
2023-02-15T09:58:06.369Z,99.90
2023-02-15T10:01:20.717Z,99.90
2023-02-15T10:04:18.156Z,99.90
2023-02-15T10:07:35.862Z,99.90
2023-02-15T10:10:49.394Z,99.90
2023-02-15T10:13:54.396Z,99.90
2023-02-15T10:16:55.004Z,99.90
2023-02-15T10:20:19.002Z,99.90
2023-02-15T10:23:35.580Z,99.90
2023-02-15T10:26:28.162Z,99.90
2023-02-15T10:29:21.328Z,99.90
2023-02-15T10:32:27.451Z,99.90
2023-02-15T10:35:31.637Z,99.90
2023-02-15T10:38:28.629Z,99.90
2023-02-15T10:41:52.787Z,99.90
2023-02-15T10:45:00.312Z,99.90
2023-02-15T10:48:02.871Z,99.90
2023-02-15T10:50:52.292Z,99.90
2023-02-15T10:53:55.996Z,99.90
2023-02-15T10:56:56.509Z,99.90
2023-02-15T11:00:06.222Z,99.90
2023-02-15T11:03:21.022Z,99.90
2023-02-15T11:06:11.788Z,99.90
2023-02-15T11:09:13.964Z,99.90
2023-02-15T11:12:01.492Z,99.90
2023-02-15T11:14:57.849Z,99.90
2023-02-15T11:17:51.668Z,99.90
2023-02-15T11:20:45.013Z,99.90
2023-02-15T11:23:33.053Z,99.90
2023-02-15T11:26:23.471Z,99.90
2023-02-15T11:29:24.096Z,99.90
2023-02-15T11:32:39.578Z,99.90
2023-02-15T11:35:30.380Z,99.90
2023-02-15T11:38:33.166Z,99.90
2023-02-15T11:41:25.184Z,99.90
2023-02-15T11:44:19.339Z,99.90
2023-02-15T11:47:09.688Z,99.90
2023-02-15T11:49:55.564Z,99.90
2023-02-15T11:52:41.147Z,99.90
2023-02-15T11:55:29.479Z,99.90
2023-02-15T11:58:55.209Z,99.90
2023-02-15T12:01:48.141Z,99.90
2023-02-15T12:04:41.591Z,99.90
2023-02-15T12:07:45.019Z,99.90
2023-02-15T12:10:35.660Z,99.80
2023-02-15T12:13:21.783Z,96.50
2023-02-15T12:16:12.667Z,92.80
2023-02-15T12:19:01.070Z,84.00
2023-02-15T12:21:52.149Z,61.20
2023-02-15T12:24:44.672Z,49.90
2023-02-15T12:27:33.146Z,42.10
2023-02-15T12:30:36.931Z,39.90
2023-02-15T12:33:34.026Z,37.00
2023-02-15T12:36:21.148Z,34.90
2023-02-15T12:39:12.846Z,34.20
2023-02-15T12:42:02.911Z,32.30
2023-02-15T12:44:59.761Z,30.40
2023-02-15T12:47:45.936Z,32.00
2023-02-15T12:50:35.250Z,32.00
2023-02-15T12:53:24.500Z,31.00
2023-02-15T12:56:11.388Z,32.20
2023-02-15T12:59:06.658Z,33.40
2023-02-15T13:01:55.685Z,32.80
2023-02-15T13:04:49.838Z,33.90
2023-02-15T13:07:35.385Z,34.20
2023-02-15T13:10:29.403Z,34.50
2023-02-15T13:13:22.975Z,34.80
2023-02-15T13:16:14.840Z,35.90
2023-02-15T13:19:11.379Z,36.90
2023-02-15T13:21:58.462Z,37.70
2023-02-15T13:24:54.720Z,38.00
2023-02-15T13:27:42.271Z,37.60
2023-02-15T13:30:39.160Z,35.90
2023-02-15T13:33:33.491Z,37.20
2023-02-15T13:36:30.452Z,36.40
2023-02-15T13:39:36.414Z,36.40
2023-02-15T13:42:25.272Z,34.00
2023-02-15T13:45:16.623Z,32.30
2023-02-15T13:48:05.304Z,33.60
2023-02-15T13:51:06.096Z,36.30
2023-02-15T13:54:24.273Z,36.90
2023-02-15T13:57:25.117Z,36.30
2023-02-15T14:00:41.660Z,38.00
2023-02-15T14:03:49.343Z,38.70
2023-02-15T14:06:59.537Z,38.30
2023-02-15T14:09:53.334Z,37.90
2023-02-15T14:12:59.260Z,38.90
2023-02-15T14:15:49.794Z,39.20
2023-02-15T14:18:47.838Z,38.90
2023-02-15T14:21:38.204Z,40.30
2023-02-15T14:24:44.216Z,40.90
2023-02-15T14:27:52.937Z,41.90
2023-02-15T14:30:41.693Z,42.80
2023-02-15T14:33:40.950Z,44.10
2023-02-15T14:36:28.958Z,44.50
2023-02-15T14:39:56.595Z,46.30
2023-02-15T14:42:59.671Z,46.20
2023-02-15T14:46:04.239Z,46.70
2023-02-15T14:48:54.170Z,47.80
2023-02-15T14:51:48.818Z,47.60
2023-02-15T14:54:34.515Z,47.30
2023-02-15T14:57:24.263Z,46.40
2023-02-15T15:00:37.881Z,48.30
2023-02-15T15:03:25.587Z,48.80
2023-02-15T15:06:35.431Z,48.50
2023-02-15T15:09:26.426Z,50.10
2023-02-15T15:12:26.966Z,53.70
2023-02-15T15:15:30.681Z,57.30
2023-02-15T15:18:45.656Z,59.70
2023-02-15T15:21:49.860Z,63.10
2023-02-15T15:24:38.421Z,65.30
2023-02-15T15:27:51.997Z,67.10
2023-02-15T15:30:37.458Z,68.50
2023-02-15T15:33:44.803Z,70.70
2023-02-15T15:36:39.694Z,72.10
2023-02-15T15:39:45.571Z,73.40
2023-02-15T15:42:39.958Z,74.50
2023-02-15T15:45:52.710Z,75.50
2023-02-15T15:48:39.971Z,76.80
2023-02-15T15:51:34.206Z,77.70
2023-02-15T15:54:25.424Z,78.30
2023-02-15T15:57:29.061Z,78.40
2023-02-15T16:00:35.600Z,79.00
2023-02-15T16:03:29.409Z,79.80
2023-02-15T16:06:15.751Z,80.10
2023-02-15T16:09:31.102Z,80.40
2023-02-15T16:12:21.346Z,81.80
2023-02-15T16:15:46.211Z,81.80
2023-02-15T16:18:33.056Z,82.50
2023-02-15T16:21:23.296Z,82.50
2023-02-15T16:24:35.717Z,83.00
2023-02-15T16:27:33.225Z,83.80
2023-02-15T16:30:28.117Z,84.70
2023-02-15T16:33:18.181Z,85.30
2023-02-15T16:36:05.686Z,86.00
2023-02-15T16:38:51.315Z,87.00
2023-02-15T16:41:38.732Z,87.90
2023-02-15T16:44:24.718Z,88.60
2023-02-15T16:47:18.934Z,89.70
2023-02-15T16:50:05.543Z,90.10
2023-02-15T16:52:52.870Z,90.50
2023-02-15T16:55:42.225Z,90.80
2023-02-15T16:58:30.464Z,91.30
2023-02-15T17:01:16.891Z,91.90
2023-02-15T17:04:21.095Z,92.40
2023-02-15T17:07:20.847Z,92.70
2023-02-15T17:10:37.875Z,93.30
2023-02-15T17:13:23.488Z,93.90
2023-02-15T17:16:28.216Z,94.20
2023-02-15T17:19:21.771Z,94.40
2023-02-15T17:22:07.875Z,94.70
2023-02-15T17:25:02.204Z,94.90
2023-02-15T17:27:53.773Z,94.80
2023-02-15T17:30:39.646Z,94.90
2023-02-15T17:33:36.324Z,96.40
2023-02-15T17:36:24.609Z,97.60
2023-02-15T17:39:23.465Z,98.40
2023-02-15T17:42:09.663Z,99.10
2023-02-15T17:44:55.329Z,99.60
2023-02-15T17:47:41.371Z,99.90
2023-02-15T17:50:28.535Z,99.90
2023-02-15T17:53:18.526Z,99.90
2023-02-15T17:56:10.793Z,99.90
2023-02-15T17:58:56.585Z,99.90
2023-02-15T18:02:07.868Z,99.90
2023-02-15T18:05:11.597Z,99.90
2023-02-15T18:08:15.742Z,99.90
2023-02-15T18:11:19.862Z,99.90
2023-02-15T18:14:10.399Z,99.90
2023-02-15T18:16:56.409Z,99.90
2023-02-15T18:19:43.955Z,99.90
2023-02-15T18:22:30.146Z,99.90
2023-02-15T18:25:17.622Z,99.90
2023-02-15T18:28:03.491Z,99.90
2023-02-15T18:30:49.313Z,99.90
2023-02-15T18:33:39.167Z,99.90
2023-02-15T18:36:27.973Z,99.90
2023-02-15T18:39:36.140Z,99.90
2023-02-15T18:42:27.934Z,99.90
2023-02-15T18:45:18.487Z,99.90
2023-02-15T18:48:04.444Z,99.90
2023-02-15T18:50:51.298Z,99.90
2023-02-15T18:53:36.777Z,99.90
2023-02-15T18:56:23.391Z,99.90
2023-02-15T18:59:17.420Z,99.90
2023-02-15T19:02:03.060Z,99.90
2023-02-15T19:04:48.543Z,99.90
2023-02-15T19:07:36.248Z,99.90
2023-02-15T19:10:24.888Z,99.90
2023-02-15T19:13:11.973Z,99.90
2023-02-15T19:15:58.847Z,99.90
2023-02-15T19:18:44.440Z,99.90
2023-02-15T19:21:32.442Z,99.90
2023-02-15T19:24:39.293Z,99.90
2023-02-15T19:27:31.775Z,99.90
2023-02-15T19:30:25.536Z,99.90
2023-02-15T19:33:17.771Z,99.90
2023-02-15T19:36:03.955Z,99.90
2023-02-15T19:38:54.433Z,99.90
2023-02-15T19:41:40.909Z,99.90
2023-02-15T19:44:26.506Z,99.90
2023-02-15T19:47:15.812Z,99.90
2023-02-15T19:50:03.593Z,99.90
2023-02-15T19:52:49.190Z,99.90
2023-02-15T19:55:35.260Z,99.90
2023-02-15T19:58:21.520Z,99.90
2023-02-15T20:01:07.463Z,99.90
2023-02-15T20:03:53.441Z,99.90
2023-02-15T20:06:39.266Z,99.90
2023-02-15T20:09:37.680Z,99.90
2023-02-15T20:12:25.949Z,99.90
2023-02-15T20:15:29.824Z,99.90
2023-02-15T20:18:15.505Z,99.90
2023-02-15T20:21:02.701Z,99.90
2023-02-15T20:23:48.725Z,99.90
2023-02-15T20:26:34.343Z,99.90
2023-02-15T20:29:19.955Z,99.90
2023-02-15T20:32:05.474Z,99.90
2023-02-15T20:34:50.899Z,99.90
2023-02-15T20:37:36.519Z,99.90
2023-02-15T20:40:25.175Z,99.90
2023-02-15T20:43:15.326Z,99.90
2023-02-15T20:46:01.863Z,99.90
2023-02-15T20:48:47.747Z,99.90
2023-02-15T20:51:33.367Z,99.90
2023-02-15T20:54:25.262Z,99.90
2023-02-15T20:57:12.657Z,99.90
2023-02-15T20:59:58.061Z,99.90
2023-02-15T21:02:43.759Z,99.90
2023-02-15T21:05:32.831Z,99.90
2023-02-15T21:08:21.325Z,99.90
2023-02-15T21:11:21.487Z,99.90
2023-02-15T21:14:19.828Z,99.90
2023-02-15T21:17:05.861Z,99.90
2023-02-15T21:19:51.683Z,99.90
2023-02-15T21:22:37.322Z,99.90
2023-02-15T21:25:29.131Z,99.90
2023-02-15T21:28:23.283Z,99.90
2023-02-15T21:31:17.061Z,99.90
2023-02-15T21:34:02.764Z,99.90
2023-02-15T21:36:50.788Z,99.90
2023-02-15T21:39:36.921Z,99.90
2023-02-15T21:42:40.879Z,99.90
2023-02-15T21:45:44.980Z,99.90
2023-02-15T21:48:30.563Z,99.90
2023-02-15T21:51:34.712Z,99.90
2023-02-15T21:54:21.532Z,99.90
2023-02-15T21:57:14.231Z,99.90
2023-02-15T21:59:59.738Z,99.90
2023-02-15T22:02:47.797Z,99.90
2023-02-15T22:05:34.520Z,99.90
2023-02-15T22:08:20.441Z,99.90
2023-02-15T22:11:15.050Z,99.90
2023-02-15T22:14:01.152Z,99.90
2023-02-15T22:16:46.503Z,99.90
2023-02-15T22:19:31.874Z,99.90
2023-02-15T22:22:18.239Z,99.90
2023-02-15T22:25:04.064Z,99.90
2023-02-15T22:27:51.753Z,99.90
2023-02-15T22:30:38.079Z,99.90
2023-02-15T22:33:29.429Z,99.90
2023-02-15T22:36:30.365Z,99.90
2023-02-15T22:39:15.814Z,99.90
2023-02-15T22:42:01.868Z,99.90
2023-02-15T22:44:48.453Z,99.90
2023-02-15T22:47:37.786Z,99.90
2023-02-15T22:50:26.495Z,99.90
2023-02-15T22:53:12.055Z,99.90
2023-02-15T22:56:01.864Z,99.90
2023-02-15T22:58:50.583Z,99.90
2023-02-15T23:01:38.064Z,99.90
2023-02-15T23:04:27.422Z,99.90
2023-02-15T23:07:15.111Z,99.90
2023-02-15T23:10:00.550Z,99.90
2023-02-15T23:13:04.661Z,99.90
2023-02-15T23:15:58.697Z,99.90
2023-02-15T23:18:46.775Z,99.90
2023-02-15T23:21:33.639Z,99.90
2023-02-15T23:24:27.643Z,99.90
2023-02-15T23:27:56.070Z,99.90
2023-02-15T23:30:41.891Z,99.90
2023-02-15T23:33:31.295Z,99.90
2023-02-15T23:36:26.326Z,99.90
2023-02-15T23:39:31.685Z,99.90
2023-02-15T23:42:20.548Z,99.90
2023-02-15T23:45:21.139Z,99.90
2023-02-15T23:48:31.442Z,99.90
2023-02-15T23:51:16.972Z,99.90
2023-02-15T23:54:02.636Z,99.90
2023-02-15T23:56:51.202Z,99.90
2023-02-15T23:59:42.704Z,99.90
